createdAt,value
2019-06-10T00:01:08.691Z,101405.14
2019-06-10T00:03:42.125Z,101399.36
2019-06-10T00:06:14.453Z,101395.83
2019-06-10T00:08:46.405Z,101389.13
2019-06-10T00:11:21.047Z,101385.56
2019-06-10T00:13:51.729Z,101384.69
2019-06-10T00:16:23.693Z,101385.19
2019-06-10T00:18:55.572Z,101386.98
2019-06-10T00:21:27.454Z,101378.04
2019-06-10T00:24:00.118Z,101378.06
2019-06-10T00:26:33.234Z,101379.02
2019-06-10T00:29:06.300Z,101375.45
2019-06-10T00:31:38.855Z,101373.23
2019-06-10T00:34:12.361Z,101370.17
2019-06-10T00:36:44.365Z,101366.14
2019-06-10T00:39:16.307Z,101367.05
2019-06-10T00:41:48.207Z,101359.02
2019-06-10T00:44:20.679Z,101361.76
2019-06-10T00:46:52.626Z,101359.52
2019-06-10T00:49:24.647Z,101362.66
2019-06-10T00:51:56.621Z,101364.45
2019-06-10T00:54:31.042Z,101358.27
2019-06-10T00:57:02.856Z,101354.27
2019-06-10T00:59:35.944Z,101358.84
2019-06-10T01:02:08.766Z,101357.55
2019-06-10T01:04:41.644Z,101355.80
2019-06-10T01:07:14.905Z,101351.80
2019-06-10T01:09:47.043Z,101354.94
2019-06-10T01:12:20.991Z,101350.06
2019-06-10T01:14:52.510Z,101346.95
2019-06-10T01:17:24.559Z,101344.27
2019-06-10T01:19:56.462Z,101338.45
2019-06-10T01:22:28.337Z,101338.45
2019-06-10T01:25:01.641Z,101334.43
2019-06-10T01:27:34.760Z,101333.04
2019-06-10T01:30:14.849Z,101335.26
2019-06-10T01:32:42.619Z,101329.44
2019-06-10T01:35:15.816Z,101328.05
2019-06-10T01:37:48.613Z,101326.30
2019-06-10T01:40:20.997Z,101324.02
2019-06-10T01:42:53.507Z,101312.39
2019-06-10T01:45:25.314Z,101311.95
2019-06-10T01:47:57.123Z,101303.91
2019-06-10T01:50:31.078Z,101302.56
2019-06-10T01:53:02.643Z,101296.31
2019-06-10T01:55:34.623Z,101290.99
2019-06-10T01:58:07.762Z,101293.67
2019-06-10T02:00:47.580Z,101302.63
2019-06-10T02:03:23.772Z,101293.19
2019-06-10T02:05:53.472Z,101297.20
2019-06-10T02:08:25.399Z,101294.06
2019-06-10T02:10:57.272Z,101293.67
2019-06-10T02:13:32.432Z,101284.68
2019-06-10T02:16:06.130Z,101282.88
2019-06-10T02:18:38.116Z,101282.88
2019-06-10T02:21:14.316Z,101287.36
2019-06-10T02:23:43.736Z,101280.20
2019-06-10T02:26:16.840Z,101273.50
2019-06-10T02:28:51.245Z,101269.02
2019-06-10T02:31:30.384Z,101255.61
2019-06-10T02:33:56.502Z,101245.29
2019-06-10T02:36:31.413Z,101235.83
2019-06-10T02:39:04.562Z,101220.09
2019-06-10T02:41:37.571Z,101209.70
2019-06-10T02:44:09.542Z,101198.50
2019-06-10T02:46:43.935Z,101194.86
2019-06-10T02:49:30.012Z,101188.55
2019-06-10T02:51:48.711Z,101180.44
2019-06-10T02:54:24.055Z,101173.23
2019-06-10T02:56:54.231Z,101170.93
2019-06-10T02:59:30.030Z,101160.60
2019-06-10T03:02:02.895Z,101157.41
2019-06-10T03:04:37.655Z,101154.72
2019-06-10T03:07:07.143Z,101152.50
2019-06-10T03:09:39.210Z,101152.95
2019-06-10T03:12:12.186Z,101143.13
2019-06-10T03:14:44.160Z,101136.53
2019-06-10T03:17:17.809Z,101142.85
2019-06-10T03:19:53.005Z,101143.36
2019-06-10T03:22:25.676Z,101141.20
2019-06-10T03:24:57.227Z,101147.58
2019-06-10T03:27:29.194Z,101143.20
2019-06-10T03:30:03.101Z,101151.37
2019-06-10T03:32:40.694Z,101141.64
2019-06-10T03:35:12.985Z,101143.06
2019-06-10T03:37:43.380Z,101142.68
2019-06-10T03:40:16.450Z,101130.23
2019-06-10T03:42:48.565Z,101133.86
2019-06-10T03:45:21.811Z,101133.92
2019-06-10T03:47:54.277Z,101126.39
2019-06-10T03:50:27.489Z,101118.01
2019-06-10T03:53:01.325Z,101111.37
2019-06-10T03:55:34.423Z,101108.79
2019-06-10T03:58:06.365Z,101104.87
2019-06-10T04:00:38.241Z,101101.86
2019-06-10T04:03:12.156Z,101097.94
2019-06-10T04:05:43.923Z,101096.24
2019-06-10T04:08:15.945Z,101099.03
2019-06-10T04:10:47.746Z,101089.24
2019-06-10T04:13:19.745Z,101086.66
2019-06-10T04:15:53.471Z,101091.77
2019-06-10T04:18:27.876Z,101086.95
2019-06-10T04:20:59.024Z,101088.37
2019-06-10T04:23:33.205Z,101086.18
2019-06-10T04:26:04.599Z,101083.98
2019-06-10T04:28:36.525Z,101088.10
2019-06-10T04:31:08.409Z,101091.77
2019-06-10T04:33:42.064Z,101092.22
2019-06-10T04:36:13.954Z,101091.73
2019-06-10T04:38:45.834Z,101097.09
2019-06-10T04:41:18.352Z,101095.31
2019-06-10T04:43:50.400Z,101086.80
2019-06-10T04:46:23.703Z,101089.04
2019-06-10T04:48:55.783Z,101083.63
2019-06-10T04:51:28.451Z,101084.97
2019-06-10T04:54:03.062Z,101078.66
2019-06-10T04:56:34.816Z,101083.58
2019-06-10T04:59:06.638Z,101088.05
2019-06-10T05:01:38.624Z,101085.38
2019-06-10T05:04:12.544Z,101093.97
2019-06-10T05:06:44.284Z,101089.81
2019-06-10T05:09:16.257Z,101090.97
2019-06-10T05:11:48.320Z,101088.48
2019-06-10T05:14:23.439Z,101090.94
2019-06-10T05:16:54.462Z,101083.16
2019-06-10T05:19:27.910Z,101069.84
2019-06-10T05:22:00.213Z,101060.03
2019-06-10T05:24:34.362Z,101057.86
2019-06-10T05:27:05.806Z,101051.61
2019-06-10T05:29:37.688Z,101046.27
2019-06-10T05:32:09.709Z,101041.81
2019-06-10T05:34:43.708Z,101040.48
2019-06-10T05:37:15.219Z,101035.11
2019-06-10T05:39:47.100Z,101032.41
2019-06-10T05:42:18.989Z,101032.88
2019-06-10T05:44:52.461Z,101040.55
2019-06-10T05:47:26.638Z,101027.95
2019-06-10T05:49:57.890Z,101022.56
2019-06-10T05:52:29.759Z,101024.81
2019-06-10T05:55:03.016Z,101025.23
2019-06-10T05:57:35.614Z,101029.28
2019-06-10T06:00:14.610Z,101022.09
2019-06-10T06:02:46.300Z,101014.42
2019-06-10T06:05:19.047Z,101016.13
2019-06-10T06:08:04.122Z,101013.30
2019-06-10T06:10:25.117Z,101016.80
2019-06-10T06:12:59.846Z,101011.34
2019-06-10T06:15:34.512Z,101007.62
2019-06-10T06:18:10.072Z,101003.83
2019-06-10T06:20:39.021Z,101010.89
2019-06-10T06:23:12.241Z,101003.98
2019-06-10T06:25:47.035Z,101006.65
2019-06-10T06:28:18.582Z,101006.11
2019-06-10T06:30:52.688Z,100998.67
2019-06-10T06:33:24.169Z,101008.89
2019-06-10T06:35:56.068Z,101009.76
2019-06-10T06:38:29.305Z,101013.36
2019-06-10T06:41:03.195Z,101006.42
2019-06-10T06:43:38.926Z,101003.92
2019-06-10T06:46:08.490Z,100997.53
2019-06-10T06:48:43.773Z,100984.79
2019-06-10T06:51:15.372Z,100984.12
2019-06-10T06:53:52.038Z,100979.77
2019-06-10T06:56:23.030Z,100984.33
2019-06-10T06:58:54.439Z,100977.58
2019-06-10T07:01:26.313Z,100970.23
2019-06-10T07:03:58.279Z,100971.32
2019-06-10T07:06:32.921Z,100968.06
2019-06-10T07:09:08.221Z,100966.77
2019-06-10T07:11:44.756Z,100966.83
2019-06-10T07:14:14.626Z,100958.25
2019-06-10T07:16:46.907Z,100964.12
2019-06-10T07:19:18.972Z,100968.87
2019-06-10T07:22:08.891Z,100966.94
2019-06-10T07:24:24.424Z,100956.64
2019-06-10T07:26:56.325Z,100949.96
2019-06-10T07:29:28.225Z,100951.02
2019-06-10T07:32:00.104Z,100946.45
2019-06-10T07:34:33.953Z,100946.55
2019-06-10T07:37:05.779Z,100939.62
2019-06-10T07:39:38.361Z,100942.40
2019-06-10T07:42:13.496Z,100937.48
2019-06-10T07:44:45.382Z,100938.05
2019-06-10T07:47:18.628Z,100935.91
2019-06-10T07:49:52.240Z,100934.18
2019-06-10T07:52:23.963Z,100937.10
2019-06-10T07:54:55.784Z,100942.77
2019-06-10T07:57:27.634Z,100934.72
2019-06-10T07:59:59.645Z,100938.78
2019-06-10T08:02:32.304Z,100935.67
2019-06-10T08:05:05.898Z,100936.53
2019-06-10T08:07:38.846Z,100935.52
2019-06-10T08:10:13.106Z,100934.16
2019-06-10T08:12:46.636Z,100927.08
2019-06-10T08:15:18.166Z,100923.28
2019-06-10T08:17:50.128Z,100920.86
2019-06-10T08:20:43.513Z,100925.88
2019-06-10T08:23:19.897Z,100921.44
2019-06-10T08:25:54.704Z,100911.00
2019-06-10T08:28:25.572Z,100902.02
2019-06-10T08:30:58.465Z,100896.11
2019-06-10T08:33:32.822Z,100897.11
2019-06-10T08:36:04.287Z,100898.34
2019-06-10T08:38:36.385Z,100895.97
2019-06-10T08:41:08.381Z,100894.52
2019-06-10T08:43:41.378Z,100893.09
2019-06-10T08:46:13.976Z,100894.40
2019-06-10T08:48:47.760Z,100891.68
2019-06-10T08:51:19.554Z,100887.02
2019-06-10T08:53:53.139Z,100884.42
2019-06-10T08:56:25.000Z,100878.92
2019-06-10T08:58:56.882Z,100876.85
2019-06-10T09:01:28.939Z,100882.04
2019-06-10T09:04:03.188Z,100881.08
2019-06-10T09:06:34.589Z,100875.70
2019-06-10T09:09:08.590Z,100874.06
2019-06-10T09:11:43.268Z,100867.20
2019-06-10T09:14:14.189Z,100866.52
2019-06-10T09:16:48.860Z,100862.64
2019-06-10T09:19:22.094Z,100859.59
2019-06-10T09:21:56.279Z,100856.91
2019-06-10T09:24:27.029Z,100852.58
2019-06-10T09:26:59.141Z,100847.66
2019-06-10T09:29:32.871Z,100845.99
2019-06-10T09:32:05.117Z,100849.97
2019-06-10T09:34:37.122Z,100847.45
2019-06-10T09:37:09.095Z,100855.34
2019-06-10T09:39:44.220Z,100841.18
2019-06-10T09:42:14.709Z,100843.90
2019-06-10T09:44:48.708Z,100836.97
2019-06-10T09:47:22.712Z,100840.16
2019-06-10T09:49:55.832Z,100830.58
2019-06-10T09:52:27.741Z,100831.95
2019-06-10T09:55:02.197Z,100833.36
2019-06-10T09:57:33.217Z,100835.59
2019-06-10T10:00:12.461Z,100831.34
2019-06-10T10:02:48.241Z,100828.78
2019-06-10T10:05:18.398Z,100826.12
2019-06-10T10:07:52.965Z,100828.34
2019-06-10T10:10:28.467Z,100819.13
2019-06-10T10:13:02.563Z,100819.93
2019-06-10T10:15:34.638Z,100814.59
2019-06-10T10:18:13.209Z,100812.44
2019-06-10T10:20:48.065Z,100819.55
2019-06-10T10:23:18.994Z,100806.10
2019-06-10T10:25:54.816Z,100798.94
2019-06-10T10:28:26.443Z,100793.19
2019-06-10T10:30:58.916Z,100787.77
2019-06-10T10:33:33.370Z,100798.09
2019-06-10T10:36:06.678Z,100791.71
2019-06-10T10:38:39.055Z,100796.58
2019-06-10T10:41:13.259Z,100798.66
2019-06-10T10:43:47.422Z,100795.72
2019-06-10T10:46:22.943Z,100789.27
2019-06-10T10:48:56.470Z,100792.36
2019-06-10T10:51:28.834Z,100781.74
2019-06-10T10:54:21.161Z,100782.64
2019-06-10T10:56:35.115Z,100776.66
2019-06-10T10:59:07.717Z,100777.38
2019-06-10T11:01:42.760Z,100769.88
2019-06-10T11:04:14.586Z,100771.78
2019-06-10T11:06:47.803Z,100773.31
2019-06-10T11:09:24.993Z,100766.13
2019-06-10T11:11:59.697Z,100767.67
2019-06-10T11:14:34.007Z,100763.98
2019-06-10T11:17:05.347Z,100767.23
2019-06-10T11:19:37.392Z,100762.57
2019-06-10T11:22:09.287Z,100761.91
2019-06-10T11:24:44.504Z,100753.34
2019-06-10T11:27:14.814Z,100746.33
2019-06-10T11:29:46.712Z,100745.11
2019-06-10T11:32:18.739Z,100745.19
2019-06-10T11:34:56.512Z,100742.11
2019-06-10T11:37:25.414Z,100739.23
2019-06-10T11:39:57.435Z,100726.42
2019-06-10T11:42:33.269Z,100728.29
2019-06-10T11:45:07.581Z,100723.23
2019-06-10T11:47:39.468Z,100718.08
2019-06-10T11:50:12.177Z,100723.39
2019-06-10T11:52:44.392Z,100713.69
2019-06-10T11:55:19.389Z,100712.81
2019-06-10T11:57:54.948Z,100717.59
2019-06-10T12:00:26.796Z,100721.13
2019-06-10T12:03:00.777Z,100715.80
2019-06-10T12:05:32.874Z,100721.20
2019-06-10T12:08:04.913Z,100716.42
2019-06-10T12:10:36.883Z,100714.78
2019-06-10T12:13:08.989Z,100709.14
2019-06-10T12:16:30.652Z,100710.95
2019-06-10T12:18:14.916Z,100718.01
2019-06-10T12:20:46.728Z,100710.43
2019-06-10T12:23:18.688Z,100707.74
2019-06-10T12:25:54.234Z,100705.09
2019-06-10T12:28:24.453Z,100703.12
2019-06-10T12:31:01.118Z,100704.91
2019-06-10T12:33:33.321Z,100700.17
2019-06-10T12:36:06.589Z,100689.97
2019-06-10T12:38:37.507Z,100684.22
2019-06-10T12:41:13.078Z,100684.22
2019-06-10T12:43:43.566Z,100681.46
2019-06-10T12:46:15.550Z,100686.83
2019-06-10T12:48:47.661Z,100697.08
2019-06-10T12:51:19.608Z,100697.08
2019-06-10T12:53:53.190Z,100684.60
2019-06-10T12:56:25.247Z,100683.75
2019-06-10T12:58:59.707Z,100683.59
2019-06-10T13:01:32.988Z,100686.75
2019-06-10T13:04:08.007Z,100671.45
2019-06-10T13:06:41.875Z,100658.36
2019-06-10T13:09:13.769Z,100660.31
2019-06-10T13:11:45.559Z,100660.31
2019-06-10T13:14:18.354Z,100645.55
2019-06-10T13:16:52.451Z,100645.55
2019-06-10T13:19:24.021Z,100646.94
2019-06-10T13:21:57.174Z,100641.25
2019-06-10T13:24:29.345Z,100649.53
2019-06-10T13:27:03.436Z,100644.20
2019-06-10T13:29:34.966Z,100645.38
2019-06-10T13:32:08.129Z,100643.14
2019-06-10T13:34:42.422Z,100626.17
2019-06-10T13:37:16.167Z,100622.41
2019-06-10T13:39:47.466Z,100614.40
2019-06-10T13:42:19.427Z,100607.55
2019-06-10T13:44:52.411Z,100601.47
2019-06-10T13:47:26.549Z,100591.52
2019-06-10T13:49:58.965Z,100595.34
2019-06-10T13:52:32.129Z,100601.24
2019-06-10T13:55:07.817Z,100604.27
2019-06-10T13:57:42.634Z,100600.92
2019-06-10T14:00:14.680Z,100602.38
2019-06-10T14:02:46.722Z,100594.41
2019-06-10T14:05:18.729Z,100590.92
2019-06-10T14:07:52.094Z,100582.76
2019-06-10T14:10:25.015Z,100574.06
2019-06-10T14:12:56.892Z,100567.95
2019-06-10T14:15:32.742Z,100562.77
2019-06-10T14:18:07.008Z,100565.22
2019-06-10T14:20:43.064Z,100566.56
2019-06-10T14:23:17.328Z,100568.43
2019-06-10T14:25:47.127Z,100563.89
2019-06-10T14:28:35.881Z,100560.47
2019-06-10T14:30:53.723Z,100556.47
2019-06-10T14:33:26.071Z,100549.78
2019-06-10T14:35:58.205Z,100544.41
2019-06-10T14:38:32.531Z,100553.77
2019-06-10T14:41:06.584Z,100556.20
2019-06-10T14:43:38.581Z,100553.86
2019-06-10T14:46:13.555Z,100553.48
2019-06-10T14:48:44.268Z,100546.69
2019-06-10T14:51:17.311Z,100543.23
2019-06-10T14:53:49.667Z,100539.36
2019-06-10T14:56:23.340Z,100537.55
2019-06-10T14:58:55.270Z,100547.14
2019-06-10T15:01:27.333Z,100529.16
2019-06-10T15:03:59.279Z,100527.09
2019-06-10T15:06:33.836Z,100523.95
2019-06-10T15:09:07.646Z,100526.66
2019-06-10T15:11:39.606Z,100522.91
2019-06-10T15:14:14.171Z,100517.34
2019-06-10T15:16:46.230Z,100510.77
2019-06-10T15:19:25.268Z,100515.03
2019-06-10T15:21:52.386Z,100520.36
2019-06-10T15:24:24.353Z,100517.48
2019-06-10T15:27:08.867Z,100504.79
2019-06-10T15:29:29.887Z,100504.84
2019-06-10T15:32:10.243Z,100501.17
2019-06-10T15:34:35.533Z,100497.47
2019-06-10T15:37:08.827Z,100496.06
2019-06-10T15:39:42.396Z,100494.92
2019-06-10T15:42:15.626Z,100500.12
2019-06-10T15:44:52.291Z,100491.54
2019-06-10T15:47:26.230Z,100494.94
2019-06-10T15:49:54.924Z,100492.51
2019-06-10T15:52:27.054Z,100494.33
2019-06-10T15:54:58.945Z,100484.13
2019-06-10T15:57:40.685Z,100483.76
2019-06-10T16:00:14.237Z,100481.59
2019-06-10T16:02:43.002Z,100468.49
2019-06-10T16:05:16.130Z,100469.05
2019-06-10T16:07:48.694Z,100470.32
2019-06-10T16:10:23.675Z,100468.66
2019-06-10T16:12:54.500Z,100466.84
2019-06-10T16:15:26.930Z,100463.42
2019-06-10T16:17:58.948Z,100460.84
2019-06-10T16:20:32.363Z,100455.17
2019-06-10T16:23:05.952Z,100462.70
2019-06-10T16:25:38.059Z,100457.70
2019-06-10T16:28:12.647Z,100462.84
2019-06-10T16:30:43.920Z,100456.02
2019-06-10T16:33:16.551Z,100451.17
2019-06-10T16:35:53.103Z,100455.19
2019-06-10T16:38:25.788Z,100454.79
2019-06-10T16:40:57.869Z,100454.81
2019-06-10T16:43:29.999Z,100454.58
2019-06-10T16:46:38.061Z,100458.61
2019-06-10T16:49:12.566Z,100454.59
2019-06-10T16:51:44.173Z,100445.13
2019-06-10T16:54:16.057Z,100445.67
2019-06-10T16:56:48.056Z,100442.85
2019-06-10T16:59:20.014Z,100443.85
2019-06-10T17:01:53.162Z,100449.09
2019-06-10T17:04:26.195Z,100447.34
2019-06-10T17:06:59.013Z,100451.89
2019-06-10T17:09:32.873Z,100453.57
2019-06-10T17:12:05.140Z,100449.67
2019-06-10T17:14:38.550Z,100444.41
2019-06-10T17:17:12.744Z,100448.64
2019-06-10T17:19:44.039Z,100444.98
2019-06-10T17:22:15.982Z,100442.30
2019-06-10T17:24:47.952Z,100441.26
2019-06-10T17:27:22.286Z,100435.55
2019-06-10T17:29:53.555Z,100438.91
2019-06-10T17:32:26.757Z,100438.43
2019-06-10T17:34:59.090Z,100438.79
2019-06-10T17:37:33.643Z,100440.77
2019-06-10T17:40:07.048Z,100433.72
2019-06-10T17:42:39.038Z,100425.74
2019-06-10T17:45:12.804Z,100429.20
2019-06-10T17:47:44.933Z,100425.41
2019-06-10T17:50:17.180Z,100427.77
2019-06-10T17:52:49.176Z,100431.17
2019-06-10T17:55:24.876Z,100398.75
2019-06-10T17:57:54.729Z,100398.75
2019-06-10T18:00:27.919Z,100426.73
2019-06-10T18:03:03.489Z,100421.68
2019-06-10T18:05:34.161Z,100422.94
2019-06-10T18:08:06.205Z,100420.20
2019-06-10T18:10:38.208Z,100422.77
2019-06-10T18:13:14.032Z,100420.10
2019-06-10T18:15:44.159Z,100421.27
2019-06-10T18:18:16.051Z,100430.38
2019-06-10T18:20:48.029Z,100428.75
2019-06-10T18:23:22.918Z,100430.91
2019-06-10T18:25:54.391Z,100431.66
2019-06-10T18:28:26.953Z,100429.03
2019-06-10T18:30:59.003Z,100432.81
2019-06-10T18:33:34.456Z,100440.08
2019-06-10T18:36:04.705Z,100435.20
2019-06-10T18:38:37.343Z,100444.88
2019-06-10T18:41:09.426Z,100444.94
2019-06-10T18:43:41.489Z,100452.12
2019-06-10T18:46:13.441Z,100455.08
2019-06-10T18:48:45.375Z,100446.69
2019-06-10T18:51:17.392Z,100451.83
2019-06-10T18:53:49.455Z,100449.64
2019-06-10T18:56:23.163Z,100453.77
2019-06-10T18:58:55.091Z,100458.42
2019-06-10T19:01:28.227Z,100454.72
2019-06-10T19:04:02.638Z,100455.91
2019-06-10T19:06:36.478Z,100460.37
2019-06-10T19:09:09.526Z,100452.14
2019-06-10T19:11:43.391Z,100455.66
2019-06-10T19:14:15.030Z,100452.47
2019-06-10T19:16:47.001Z,100452.41
2019-06-10T19:19:18.910Z,100450.06
2019-06-10T19:22:04.702Z,100444.10
2019-06-10T19:24:24.482Z,100450.69
2019-06-10T19:26:59.977Z,100451.38
2019-06-10T19:29:38.191Z,100461.97
2019-06-10T19:32:04.166Z,100451.44
2019-06-10T19:34:37.408Z,100452.58
2019-06-10T19:37:09.689Z,100451.85
2019-06-10T19:39:49.404Z,100449.34
2019-06-10T19:42:16.612Z,100447.75
2019-06-10T19:44:48.646Z,100457.39
2019-06-10T19:47:20.626Z,100457.08
2019-06-10T19:49:52.587Z,100455.95
2019-06-10T19:52:24.550Z,100453.84
2019-06-10T19:54:56.613Z,100452.69
2019-06-10T19:57:28.566Z,100455.57
2019-06-10T20:00:10.758Z,100457.07
2019-06-10T20:02:35.836Z,100458.12
2019-06-10T20:05:12.328Z,100453.75
2019-06-10T20:07:48.477Z,100459.70
2019-06-10T20:10:17.690Z,100458.95
2019-06-10T20:12:49.659Z,100460.45
2019-06-10T20:15:27.034Z,100466.05
2019-06-10T20:17:58.999Z,100456.77
2019-06-10T20:20:33.295Z,100452.89
2019-06-10T20:23:08.533Z,100445.38
2019-06-10T20:25:41.025Z,100444.58
2019-06-10T20:28:13.413Z,100443.27
2019-06-10T20:30:47.760Z,100446.02
2019-06-10T20:33:33.690Z,100442.89
2019-06-10T20:36:06.893Z,100444.84
2019-06-10T20:38:38.214Z,100447.63
2019-06-10T20:41:12.571Z,100449.98
2019-06-10T20:43:45.894Z,100451.41
2019-06-10T20:46:17.672Z,100460.48
2019-06-10T20:48:51.234Z,100456.08
2019-06-10T20:51:26.889Z,100462.06
2019-06-10T20:53:56.919Z,100460.38
2019-06-10T20:56:28.863Z,100450.61
2019-06-10T20:59:02.839Z,100459.30
2019-06-10T21:01:34.601Z,100461.21
2019-06-10T21:04:06.661Z,100463.55
2019-06-10T21:06:39.464Z,100471.20
2019-06-10T21:09:13.404Z,100480.72
2019-06-10T21:11:46.995Z,100484.31
2019-06-10T21:14:19.533Z,100473.97
2019-06-10T21:16:53.575Z,100471.76
2019-06-10T21:19:25.151Z,100469.58
2019-06-10T21:21:57.064Z,100466.98
2019-06-10T21:24:28.984Z,100467.07
2019-06-10T21:27:00.943Z,100477.42
2019-06-10T21:29:33.008Z,100483.80
2019-06-10T21:32:05.040Z,100477.03
2019-06-10T21:34:37.922Z,100476.19
2019-06-10T21:37:12.109Z,100471.69
2019-06-10T21:39:44.795Z,100479.76
2019-06-10T21:42:17.279Z,100478.84
2019-06-10T21:44:49.983Z,100478.86
2019-06-10T21:47:23.389Z,100470.39
2019-06-10T21:49:55.459Z,100472.23
2019-06-10T21:52:27.365Z,100471.82
2019-06-10T21:54:59.345Z,100473.17
2019-06-10T21:57:33.171Z,100466.89
2019-06-10T22:00:11.390Z,100452.08
2019-06-10T22:02:46.642Z,100451.65
2019-06-10T22:05:18.544Z,100455.23
2019-06-10T22:07:53.227Z,100457.88
2019-06-10T22:10:23.944Z,100461.91
2019-06-10T22:12:56.162Z,100452.45
2019-06-10T22:15:28.138Z,100453.79
2019-06-10T22:18:02.163Z,100459.64
2019-06-10T22:20:34.324Z,100460.56
2019-06-10T22:23:06.351Z,100460.58
2019-06-10T22:25:38.403Z,100474.09
2019-06-10T22:28:12.662Z,100478.16
2019-06-10T22:30:45.138Z,100471.89
2019-06-10T22:33:17.091Z,100489.42
2019-06-10T22:35:49.547Z,100490.77
2019-06-10T22:38:22.180Z,100497.05
2019-06-10T22:40:56.884Z,100499.33
2019-06-10T22:43:27.987Z,100493.47
2019-06-10T22:46:00.130Z,100504.27
2019-06-10T22:48:33.303Z,100504.72
2019-06-10T22:51:05.445Z,100506.54
2019-06-10T22:53:37.600Z,100506.08
2019-06-10T22:56:09.559Z,100502.95
2019-06-10T22:58:41.630Z,100502.53
2019-06-10T23:01:13.590Z,100507.93
2019-06-10T23:03:45.703Z,100507.97
2019-06-10T23:06:17.665Z,100508.90
2019-06-10T23:08:50.320Z,100505.30
2019-06-10T23:11:24.079Z,100497.27
2019-06-10T23:13:56.876Z,100486.93
2019-06-10T23:16:29.593Z,100482.47
2019-06-10T23:19:02.986Z,100469.90
2019-06-10T23:21:36.292Z,100457.33
2019-06-10T23:24:08.261Z,100457.35
2019-06-10T23:26:42.351Z,100449.73
2019-06-10T23:29:13.890Z,100448.83
2019-06-10T23:31:52.234Z,100444.33
2019-06-10T23:34:22.466Z,100442.55
2019-06-10T23:36:55.350Z,100442.55
2019-06-10T23:39:26.829Z,100434.92
2019-06-10T23:41:59.574Z,100437.18
2019-06-10T23:44:33.011Z,100438.97
2019-06-10T23:47:05.171Z,100449.30
2019-06-10T23:49:37.207Z,100452.92
2019-06-10T23:52:09.360Z,100462.80
2019-06-10T23:54:41.367Z,100451.16
2019-06-10T23:57:13.265Z,100452.50
2019-06-10T23:59:45.175Z,100456.57
